Rovinj, Croatia

12:24 PM CET on November 23, 2014 (GMT +0100)
Flengi | Change Station
CLOSE
Current Station
Personal Weather Station
Location: Vrsar, Croatia
Elevation: 265 ft
Nearby Weather Stations

Elev 265 ft 45.16 °N, 13.66 °E | Updated 4 minutes ago

Clear
Clear
56.1 °F
Feels Like 56.1 °F
N
2.7
Wind Variable Wind from WNW

Today
High -- | Low -- °F
--% Chance of Precip.
Yesterday
High -- | Low -- °F
Precip. -- in
7:13 AM 4:29 PM
New Moon, 1% visible
Pressure 30.33 in
Visibility -9999.0 miles
Clouds
Dew Point 52 °F
Humidity 86%
Rainfall 0.02 in
Snow Depth Not available.
UV Not available.
Pollen Not available.
Air Quality Not available.
Flu Activity Not available.
METAR LDPL 231100Z 29006KT 250V320 CAVOK 13/04 Q1027 NOSIG

More Conditions Fewer Conditions

Pressure 30.33 in
Visibility -9999.0 miles
Clouds
Dew Point 52 °F
Humidity 86%
Rainfall 0.02 in
Snow Depth Not available.
UV Not available.
Pollen Not available.
Air Quality Not available.
Flu Activity Not available.
METAR LDPL 231100Z 29006KT 250V320 CAVOK 13/04 Q1027 NOSIG

More Conditions Fewer Conditions

10-Day Weather Forecast

Almanac

Astronomy

Nov. 23, 2014 Rise Set
Actual Time
Civil Twilight
Nautical Twilight
Astronomical Twilight
Moon
Length of Visible Light
Length of Day
Tomorrow will be .
, % of the Moon is Illuminated

Today's Extremes

Country Highs Country Lows

Community

WunderPhotos

Upload Photos

1,773,036 photos uploaded!

WunderBlogs® & News

Nearby

Air Quality

  Air Quality AQ Index Pollutant
Not available.

Snow Depth

Station Depth Elevation

Earthquake Activity

City Distance Mag. Time & Date
Minimum magnitude displayed is 2.5.

Coastal Water Temperatures

Place Temperature

Nearby Weather Stations